createdAt,value
2023-05-02T00:02:00.870Z,7.42
2023-05-02T00:05:51.218Z,7.38
2023-05-02T00:09:13.828Z,7.34
2023-05-02T00:12:51.842Z,7.28
2023-05-02T00:16:56.880Z,7.25
2023-05-02T00:20:24.291Z,7.23
2023-05-02T00:24:01.514Z,7.21
2023-05-02T00:27:39.373Z,7.19
2023-05-02T00:30:59.648Z,7.17
2023-05-02T00:35:07.053Z,7.19
2023-05-02T00:38:22.438Z,7.24
2023-05-02T00:42:01.532Z,7.26
2023-05-02T00:46:13.428Z,7.27
2023-05-02T00:49:41.557Z,7.29
2023-05-02T00:53:03.906Z,7.29
2023-05-02T00:56:56.869Z,7.27
2023-05-02T01:00:55.344Z,7.25
2023-05-02T01:04:23.464Z,7.25
2023-05-02T01:07:47.901Z,7.22
2023-05-02T01:16:08.483Z,7.12
2023-05-02T01:19:36.558Z,7.12
2023-05-02T01:23:23.044Z,7.10
2023-05-02T01:26:42.042Z,7.08
2023-05-02T01:30:10.361Z,7.04
2023-05-02T01:33:54.019Z,7.00
2023-05-02T01:37:39.648Z,6.96
2023-05-02T01:41:17.261Z,6.92
2023-05-02T01:44:58.933Z,6.88
2023-05-02T01:48:32.078Z,6.86
2023-05-02T01:52:11.564Z,6.83
2023-05-02T01:56:07.447Z,6.83
2023-05-02T01:59:50.267Z,6.84
2023-05-02T02:03:36.672Z,6.88
2023-05-02T02:06:49.788Z,6.92
2023-05-02T02:10:42.503Z,6.94
2023-05-02T02:14:16.152Z,6.96
2023-05-02T02:18:21.337Z,6.99
2023-05-02T02:21:31.084Z,7.02
2023-05-02T02:25:04.010Z,7.03
2023-05-02T02:28:47.813Z,7.05
2023-05-02T02:32:36.383Z,7.06
2023-05-02T02:36:31.352Z,7.11
2023-05-02T02:39:55.061Z,7.14
2023-05-02T02:43:28.988Z,7.17
2023-05-02T02:47:26.061Z,7.21
2023-05-02T02:51:08.924Z,7.24
2023-05-02T02:54:37.150Z,7.26
2023-05-02T02:58:21.791Z,7.28
2023-05-02T03:01:33.861Z,7.29
2023-05-02T03:05:19.585Z,7.28
2023-05-02T03:09:17.987Z,7.28
2023-05-02T03:12:34.842Z,7.27
2023-05-02T03:16:29.319Z,7.26
2023-05-02T03:20:06.253Z,7.25
2023-05-02T03:23:27.354Z,7.25
2023-05-02T03:27:04.803Z,7.25
2023-05-02T03:30:43.671Z,7.26
2023-05-02T03:34:22.271Z,7.26
2023-05-02T03:38:15.892Z,7.30
2023-05-02T03:41:34.865Z,7.33
2023-05-02T03:45:21.675Z,7.36
2023-05-02T03:49:05.726Z,7.39
2023-05-02T03:52:51.609Z,7.44
2023-05-02T03:56:46.468Z,7.48
2023-05-02T04:00:04.818Z,7.54
2023-05-02T04:03:56.499Z,7.60
2023-05-02T04:07:50.889Z,7.66
2023-05-02T04:11:11.905Z,7.74
2023-05-02T04:15:09.266Z,7.87
2023-05-02T04:18:44.377Z,8.03
2023-05-02T04:22:23.400Z,8.18
2023-05-02T04:26:00.062Z,8.32
2023-05-02T04:29:21.294Z,8.44
2023-05-02T04:32:58.069Z,8.54
2023-05-02T04:36:35.979Z,8.63
2023-05-02T04:40:15.077Z,8.71
2023-05-02T04:44:08.353Z,8.80
2023-05-02T04:47:55.748Z,8.94
2023-05-02T04:51:22.618Z,9.03
2023-05-02T04:55:00.056Z,9.13
2023-05-02T04:58:25.608Z,9.21
2023-05-02T05:01:59.871Z,9.34
2023-05-02T05:05:51.580Z,9.46
2023-05-02T05:09:13.043Z,9.56
2023-05-02T05:13:13.543Z,9.67
2023-05-02T05:16:35.863Z,9.78
2023-05-02T05:20:38.146Z,9.89
2023-05-02T05:23:58.965Z,10.03
2023-05-02T05:27:28.845Z,10.24
2023-05-02T05:31:17.231Z,10.44
2023-05-02T05:34:42.268Z,10.60
2023-05-02T05:38:52.583Z,10.69
2023-05-02T05:42:05.974Z,10.77
2023-05-02T05:45:56.424Z,10.88
2023-05-02T05:49:46.155Z,10.99
2023-05-02T05:53:23.905Z,11.11
2023-05-02T05:56:44.770Z,11.26
2023-05-02T06:00:32.815Z,11.40
2023-05-02T06:04:17.188Z,11.59
2023-05-02T06:07:37.964Z,11.76
2023-05-02T06:11:33.532Z,11.98
2023-05-02T06:14:53.989Z,12.24
2023-05-02T06:18:35.656Z,12.91
2023-05-02T06:22:08.677Z,14.39
2023-05-02T06:26:06.146Z,16.24
2023-05-02T06:29:22.474Z,17.64
2023-05-02T06:33:34.772Z,18.90
2023-05-02T06:37:11.919Z,19.96
2023-05-02T06:40:44.745Z,20.62
2023-05-02T06:44:17.480Z,21.30
2023-05-02T06:47:55.219Z,22.04
2023-05-02T06:51:42.835Z,22.46
2023-05-02T06:55:18.238Z,22.07
2023-05-02T06:58:56.238Z,21.76
2023-05-02T07:02:26.173Z,21.69
2023-05-02T07:06:13.685Z,21.78
2023-05-02T07:09:41.353Z,22.07
2023-05-02T07:13:02.216Z,22.35
2023-05-02T07:16:38.945Z,22.13
2023-05-02T07:20:41.891Z,22.09
2023-05-02T07:24:19.663Z,22.74
2023-05-02T07:27:49.275Z,23.21
2023-05-02T07:31:24.939Z,23.51
2023-05-02T07:35:21.560Z,23.83
2023-05-02T07:38:49.663Z,24.15
2023-05-02T07:42:09.156Z,24.47
2023-05-02T07:46:09.086Z,24.84
2023-05-02T07:49:50.351Z,25.01
2023-05-02T07:53:26.552Z,25.08
2023-05-02T07:57:08.097Z,24.73
2023-05-02T08:00:28.602Z,24.46
2023-05-02T08:04:03.394Z,24.16
2023-05-02T08:07:56.282Z,23.74
2023-05-02T08:11:35.031Z,23.55
2023-05-02T08:15:20.616Z,23.44
2023-05-02T08:18:41.458Z,23.32
2023-05-02T08:22:31.919Z,23.17
2023-05-02T08:26:06.343Z,23.04
2023-05-02T08:29:53.484Z,22.99
2023-05-02T08:33:20.265Z,22.98
2023-05-02T08:36:59.322Z,22.86
2023-05-02T08:40:42.267Z,22.80
2023-05-02T08:44:14.530Z,22.83
2023-05-02T08:47:35.528Z,22.82
2023-05-02T08:51:15.268Z,22.79
2023-05-02T08:55:17.908Z,22.86
2023-05-02T08:58:53.504Z,22.96
2023-05-02T09:02:43.225Z,23.10
2023-05-02T09:06:07.179Z,23.26
2023-05-02T09:09:38.447Z,23.20
2023-05-02T09:13:34.848Z,23.21
2023-05-02T09:16:59.493Z,23.27
2023-05-02T09:20:40.748Z,23.26
2023-05-02T09:23:55.463Z,23.26
2023-05-02T09:27:52.855Z,23.24
2023-05-02T09:31:12.153Z,23.29
2023-05-02T09:35:03.692Z,23.33
2023-05-02T09:39:16.741Z,23.30
2023-05-02T09:42:34.781Z,23.40
2023-05-02T09:46:21.860Z,23.51
2023-05-02T09:49:49.877Z,23.56
2023-05-02T09:53:52.412Z,23.56
2023-05-02T09:57:40.923Z,23.59
2023-05-02T10:01:17.764Z,23.54
2023-05-02T10:04:28.830Z,23.44
2023-05-02T10:08:06.888Z,23.31
2023-05-02T10:12:03.033Z,23.22
2023-05-02T10:15:43.900Z,23.27
2023-05-02T10:19:03.344Z,23.47
2023-05-02T10:22:37.266Z,23.68
2023-05-02T10:26:16.093Z,23.73
2023-05-02T10:29:54.665Z,23.74
2023-05-02T10:33:56.623Z,23.59
2023-05-02T10:37:24.460Z,23.54
2023-05-02T10:41:04.986Z,23.39
2023-05-02T10:44:41.108Z,23.29
2023-05-02T10:48:15.372Z,23.04
2023-05-02T10:51:56.588Z,22.86
2023-05-02T10:55:43.786Z,22.79
2023-05-02T10:59:29.235Z,22.81
2023-05-02T11:02:51.961Z,22.77
2023-05-02T11:06:27.253Z,22.57
2023-05-02T11:09:46.992Z,22.36
2023-05-02T11:13:50.274Z,22.13
2023-05-02T11:17:20.988Z,21.85
2023-05-02T11:21:28.070Z,21.53
2023-05-02T11:24:40.089Z,21.28
2023-05-02T11:27:53.497Z,21.12
2023-05-02T11:31:56.324Z,20.87
2023-05-02T11:35:24.990Z,20.68
2023-05-02T11:38:51.789Z,20.45
2023-05-02T11:42:36.988Z,20.14
2023-05-02T11:46:32.223Z,19.86
2023-05-02T11:49:50.157Z,19.59
2023-05-02T11:53:36.520Z,19.44
2023-05-02T11:57:33.784Z,19.47
2023-05-02T12:00:52.627Z,19.60
2023-05-02T12:04:45.359Z,19.89
2023-05-02T12:08:04.745Z,20.13
2023-05-02T12:12:08.066Z,20.20
2023-05-02T12:15:36.029Z,20.15
2023-05-02T12:19:07.225Z,20.17
2023-05-02T12:22:43.339Z,20.10
2023-05-02T12:26:36.553Z,19.90
2023-05-02T12:30:00.046Z,19.65
2023-05-02T12:33:48.228Z,19.53
2023-05-02T12:37:23.111Z,19.52
2023-05-02T12:41:06.808Z,19.46
2023-05-02T12:44:46.323Z,19.55
2023-05-02T12:48:26.216Z,19.67
2023-05-02T12:51:43.980Z,19.77
2023-05-02T12:55:32.110Z,19.83
2023-05-02T12:59:28.412Z,20.00
2023-05-02T13:03:01.208Z,20.20
2023-05-02T13:06:40.161Z,20.37
2023-05-02T13:10:25.467Z,20.52
2023-05-02T13:13:54.515Z,20.43
2023-05-02T13:17:32.401Z,20.38
2023-05-02T13:21:15.538Z,20.31
2023-05-02T13:24:57.537Z,20.16
2023-05-02T13:28:25.804Z,19.92
2023-05-02T13:32:03.866Z,19.70
2023-05-02T13:35:40.958Z,19.49
2023-05-02T13:39:28.330Z,19.37
2023-05-02T13:42:57.045Z,19.19
2023-05-02T13:46:35.806Z,19.08
2023-05-02T13:49:54.716Z,19.09
2023-05-02T13:53:49.263Z,19.11
2023-05-02T13:57:28.158Z,19.21
2023-05-02T14:00:45.870Z,19.29
2023-05-02T14:04:49.386Z,19.40
2023-05-02T14:08:25.484Z,19.55
2023-05-02T14:12:03.837Z,19.76
2023-05-02T14:15:27.659Z,19.86
2023-05-02T14:19:01.754Z,19.86
2023-05-02T14:22:49.579Z,19.87
2023-05-02T14:26:34.220Z,19.79
2023-05-02T14:30:12.635Z,19.74
2023-05-02T14:33:59.736Z,19.83
2023-05-02T14:37:10.864Z,19.85
2023-05-02T14:40:46.871Z,19.87
2023-05-02T14:44:49.586Z,19.81
2023-05-02T14:48:26.272Z,19.70
2023-05-02T14:52:02.272Z,19.59
2023-05-02T14:55:45.301Z,19.50
2023-05-02T14:59:23.113Z,19.40
2023-05-02T15:02:47.876Z,19.28
2023-05-02T15:06:20.529Z,19.22
2023-05-02T15:10:06.591Z,19.17
2023-05-02T15:13:50.414Z,19.11
2023-05-02T15:17:27.961Z,19.06
2023-05-02T15:21:06.825Z,19.02
2023-05-02T15:24:43.927Z,18.94
2023-05-02T15:28:03.207Z,18.90
2023-05-02T15:32:05.643Z,18.86
2023-05-02T15:35:57.962Z,18.80
2023-05-02T15:39:24.436Z,18.75
2023-05-02T15:42:41.822Z,18.69
2023-05-02T15:46:35.692Z,18.63
2023-05-02T15:50:17.660Z,18.55
2023-05-02T15:54:01.254Z,18.49
2023-05-02T15:57:29.034Z,18.41
2023-05-02T16:01:06.891Z,18.37
2023-05-02T16:04:32.230Z,18.31
2023-05-02T16:08:21.278Z,18.29
2023-05-02T16:11:58.208Z,18.27
2023-05-02T16:15:38.470Z,18.25
2023-05-02T16:19:23.965Z,18.23
2023-05-02T16:22:52.960Z,18.21
2023-05-02T16:26:15.079Z,18.18
2023-05-02T16:30:10.546Z,18.11
2023-05-02T16:33:39.714Z,18.09
2023-05-02T16:37:25.685Z,18.01
2023-05-02T16:41:06.188Z,17.97
2023-05-02T16:44:39.326Z,17.92
2023-05-02T16:48:00.944Z,17.83
2023-05-02T16:51:37.802Z,17.73
2023-05-02T16:55:16.796Z,17.66
2023-05-02T16:59:08.223Z,17.59
2023-05-02T17:02:56.183Z,17.54
2023-05-02T17:06:23.526Z,17.51
2023-05-02T17:09:47.013Z,17.44
2023-05-02T17:13:42.851Z,17.37
2023-05-02T17:17:03.139Z,17.29
2023-05-02T17:20:56.463Z,17.17
2023-05-02T17:24:17.420Z,17.08
2023-05-02T17:27:55.943Z,16.98
2023-05-02T17:31:49.499Z,16.89
2023-05-02T17:35:37.512Z,16.81
2023-05-02T17:39:03.567Z,16.73
2023-05-02T17:42:43.924Z,16.65
2023-05-02T17:46:10.333Z,16.57
2023-05-02T17:50:04.329Z,16.43
2023-05-02T17:53:46.664Z,16.34
2023-05-02T17:57:12.199Z,16.25
2023-05-02T18:00:52.534Z,16.17
2023-05-02T18:04:12.844Z,16.07
2023-05-02T18:08:15.224Z,15.96
2023-05-02T18:11:52.946Z,15.84
2023-05-02T18:15:14.158Z,15.79
2023-05-02T18:18:51.977Z,15.67
2023-05-02T18:22:32.237Z,15.56
2023-05-02T18:26:22.347Z,15.45
2023-05-02T18:30:00.096Z,15.39
2023-05-02T18:33:40.883Z,15.33
2023-05-02T18:37:17.088Z,15.28
2023-05-02T18:40:37.229Z,15.20
2023-05-02T18:44:32.122Z,15.13
2023-05-02T18:48:09.477Z,15.09
2023-05-02T18:51:50.777Z,15.03
2023-05-02T18:55:34.956Z,14.98
2023-05-02T18:58:56.681Z,14.94
2023-05-02T19:02:41.832Z,14.90
2023-05-02T19:06:28.831Z,14.87
2023-05-02T19:10:08.417Z,14.87
2023-05-02T19:13:33.500Z,14.88
2023-05-02T19:16:54.442Z,14.88
2023-05-02T19:20:49.026Z,14.83
2023-05-02T19:24:10.241Z,14.82
2023-05-02T19:27:49.504Z,14.80
2023-05-02T19:31:43.116Z,14.78
2023-05-02T19:35:21.612Z,14.71
2023-05-02T19:38:41.699Z,14.62
2023-05-02T19:42:21.771Z,14.56
2023-05-02T19:46:06.757Z,14.48
2023-05-02T19:49:44.336Z,14.44
2023-05-02T19:53:31.160Z,14.39
2023-05-02T19:57:17.284Z,14.38
2023-05-02T20:00:45.648Z,14.38
2023-05-02T20:04:05.065Z,14.38
2023-05-02T20:07:59.360Z,14.36
2023-05-02T20:11:23.369Z,14.33
2023-05-02T20:14:58.847Z,14.32
2023-05-02T20:18:34.217Z,14.31
2023-05-02T20:22:23.331Z,14.28
2023-05-02T20:25:56.914Z,14.24
2023-05-02T20:29:33.006Z,14.20
2023-05-02T20:33:44.601Z,14.14
2023-05-02T20:36:58.545Z,14.10
2023-05-02T20:40:43.652Z,14.07
2023-05-02T20:44:11.032Z,14.03
2023-05-02T20:47:48.224Z,13.96
2023-05-02T20:51:50.883Z,13.84
2023-05-02T20:55:26.975Z,13.70
2023-05-02T20:58:47.449Z,13.60
2023-05-02T21:02:33.680Z,13.50
2023-05-02T21:06:21.735Z,13.43
2023-05-02T21:09:47.864Z,13.30
2023-05-02T21:13:24.756Z,13.25
2023-05-02T21:17:09.539Z,13.20
2023-05-02T21:20:47.402Z,13.13
2023-05-02T21:24:35.160Z,13.10
2023-05-02T21:28:02.640Z,13.05
2023-05-02T21:31:40.500Z,12.96
2023-05-02T21:35:18.252Z,12.87
2023-05-02T21:39:12.745Z,12.78
2023-05-02T21:42:50.258Z,12.77
2023-05-02T21:46:26.243Z,12.79
2023-05-02T21:50:08.471Z,12.75
2023-05-02T21:53:27.737Z,12.69
2023-05-02T21:57:03.707Z,12.57
2023-05-02T22:00:48.561Z,12.45
2023-05-02T22:04:26.882Z,12.35
2023-05-02T22:08:04.035Z,12.30
2023-05-02T22:11:47.394Z,12.24
2023-05-02T22:15:30.610Z,12.18
2023-05-02T22:19:15.895Z,12.13
2023-05-02T22:23:03.723Z,12.10
2023-05-02T22:26:30.769Z,12.02
2023-05-02T22:30:10.612Z,11.86
2023-05-02T22:33:56.271Z,11.66
2023-05-02T22:37:41.001Z,11.46
2023-05-02T22:41:00.544Z,11.39
2023-05-02T22:44:53.507Z,11.32
2023-05-02T22:48:21.492Z,11.24
2023-05-02T22:52:07.101Z,11.17
2023-05-02T22:55:47.703Z,11.09
2023-05-02T22:59:21.943Z,11.06
2023-05-02T23:03:26.489Z,11.03
2023-05-02T23:06:45.472Z,10.97
2023-05-02T23:10:22.783Z,10.88
2023-05-02T23:13:52.558Z,10.87
2023-05-02T23:17:42.060Z,10.84
2023-05-02T23:21:14.763Z,10.81
2023-05-02T23:24:48.471Z,10.76
2023-05-02T23:28:23.369Z,10.69
2023-05-02T23:32:01.333Z,10.62
2023-05-02T23:35:56.029Z,10.58
2023-05-02T23:39:16.568Z,10.59
2023-05-02T23:42:54.319Z,10.59
2023-05-02T23:46:33.372Z,10.54
2023-05-02T23:50:20.653Z,10.49
2023-05-02T23:53:47.342Z,10.43
2023-05-02T23:57:23.524Z,10.40
